sensor_id;sensor_type;location;lat;lon;timestamp;P1;durP1;ratioP1;P2;durP2;ratioP2
72065;SDS011;59939;52.516;13.420;2022-09-09T16:03:08;24.17;;;7.10;;
72065;SDS011;59939;52.516;13.420;2022-09-09T16:06:27;26.33;;;7.00;;
72065;SDS011;59939;52.516;13.420;2022-09-09T16:09:35;23.05;;;5.80;;
72065;SDS011;59939;52.516;13.420;2022-09-09T16:12:40;24.10;;;5.18;;
72065;SDS011;59939;52.516;13.420;2022-09-09T16:15:44;25.42;;;4.05;;
72065;SDS011;59939;52.516;13.420;2022-09-09T16:18:51;35.80;;;5.10;;
72065;SDS011;59939;52.516;13.420;2022-09-09T16:21:56;44.00;;;5.85;;
72065;SDS011;59939;52.516;13.420;2022-09-09T16:25:08;43.90;;;5.45;;
72065;SDS011;59939;52.516;13.420;2022-09-09T16:28:15;52.78;;;6.53;;
72065;SDS011;59939;52.516;13.420;2022-09-09T16:31:19;71.72;;;8.45;;
72065;SDS011;59939;52.516;13.420;2022-09-09T16:34:26;41.05;;;5.70;;
72065;SDS011;59939;52.516;13.420;2022-09-09T16:37:30;42.10;;;5.40;;
72065;SDS011;59939;52.516;13.420;2022-09-09T16:40:35;32.17;;;4.50;;
72065;SDS011;59939;52.516;13.420;2022-09-09T16:43:40;40.35;;;5.22;;
72065;SDS011;59939;52.516;13.420;2022-09-09T16:46:45;68.78;;;8.05;;
72065;SDS011;59939;52.516;13.420;2022-09-09T16:49:52;44.10;;;5.57;;
72065;SDS011;59939;52.516;13.420;2022-09-09T16:52:56;44.65;;;5.82;;
72065;SDS011;59939;52.516;13.420;2022-09-09T16:56:09;34.97;;;4.57;;
72065;SDS011;59939;52.516;13.420;2022-09-09T16:59:21;71.15;;;8.30;;
72065;SDS011;59939;52.516;13.420;2022-09-09T17:02:26;50.22;;;6.57;;
72065;SDS011;59939;52.516;13.420;2022-09-09T17:05:31;48.60;;;6.93;;
72065;SDS011;59939;52.516;13.420;2022-09-09T17:08:38;38.80;;;5.15;;
72065;SDS011;59939;52.516;13.420;2022-09-09T17:11:45;55.17;;;7.13;;
72065;SDS011;59939;52.516;13.420;2022-09-09T17:14:50;35.00;;;5.10;;
72065;SDS011;59939;52.516;13.420;2022-09-09T17:17:54;40.92;;;6.63;;
72065;SDS011;59939;52.516;13.420;2022-09-09T17:21:05;29.08;;;4.72;;
72065;SDS011;59939;52.516;13.420;2022-09-09T17:24:11;35.67;;;5.30;;
72065;SDS011;59939;52.516;13.420;2022-09-09T17:27:15;38.45;;;6.13;;
72065;SDS011;59939;52.516;13.420;2022-09-09T17:30:18;26.73;;;5.15;;
72065;SDS011;59939;52.516;13.420;2022-09-09T17:33:23;89.25;;;13.88;;
72065;SDS011;59939;52.516;13.420;2022-09-09T17:36:32;36.70;;;6.30;;
72065;SDS011;59939;52.516;13.420;2022-09-09T17:43:09;21.17;;;4.57;;
72065;SDS011;59939;52.516;13.420;2022-09-09T17:46:15;41.80;;;9.55;;
72065;SDS011;59939;52.516;13.420;2022-09-09T17:49:25;20.73;;;4.22;;
72065;SDS011;59939;52.516;13.420;2022-09-09T17:52:37;18.80;;;4.05;;
72065;SDS011;59939;52.516;13.420;2022-09-09T17:55:41;18.40;;;4.53;;
72065;SDS011;59939;52.516;13.420;2022-09-09T17:58:54;21.77;;;4.78;;
72065;SDS011;59939;52.516;13.420;2022-09-09T18:01:59;18.73;;;4.13;;
72065;SDS011;59939;52.516;13.420;2022-09-09T18:05:08;18.88;;;4.50;;
72065;SDS011;59939;52.516;13.420;2022-09-09T18:08:15;17.48;;;4.70;;
72065;SDS011;59939;52.516;13.420;2022-09-09T18:11:20;17.48;;;4.70;;
72065;SDS011;59939;52.516;13.420;2022-09-09T18:14:27;16.30;;;4.65;;
72065;SDS011;59939;52.516;13.420;2022-09-09T18:17:33;12.65;;;3.70;;
72065;SDS011;59939;52.516;13.420;2022-09-09T18:20:37;10.30;;;2.85;;
72065;SDS011;59939;52.516;13.420;2022-09-09T18:23:41;9.90;;;3.85;;
72065;SDS011;59939;52.516;13.420;2022-09-09T18:26:59;7.75;;;2.88;;
72065;SDS011;59939;52.516;13.420;2022-09-09T18:30:04;7.72;;;2.13;;
72065;SDS011;59939;52.516;13.420;2022-09-09T18:33:09;7.22;;;2.20;;
72065;SDS011;59939;52.516;13.420;2022-09-09T18:36:15;7.63;;;2.90;;
72065;SDS011;59939;52.516;13.420;2022-09-09T18:39:21;8.57;;;5.15;;
72065;SDS011;59939;52.516;13.420;2022-09-09T18:42:27;12.05;;;3.63;;
72065;SDS011;59939;52.516;13.420;2022-09-09T18:45:46;7.43;;;2.20;;
72065;SDS011;59939;52.516;13.420;2022-09-09T18:48:50;3.75;;;1.98;;
72065;SDS011;59939;52.516;13.420;2022-09-09T18:51:54;6.40;;;2.15;;
72065;SDS011;59939;52.516;13.420;2022-09-09T18:54:59;8.02;;;2.50;;
72065;SDS011;59939;52.516;13.420;2022-09-09T18:58:05;7.43;;;3.47;;
72065;SDS011;59939;52.516;13.420;2022-09-09T19:01:10;6.63;;;2.70;;
72065;SDS011;59939;52.516;13.420;2022-09-09T19:04:16;8.98;;;2.17;;
72065;SDS011;59939;52.516;13.420;2022-09-09T19:07:21;7.28;;;2.17;;
72065;SDS011;59939;52.516;13.420;2022-09-09T19:10:35;8.35;;;2.25;;
72065;SDS011;59939;52.516;13.420;2022-09-09T19:13:50;6.15;;;2.00;;
72065;SDS011;59939;52.516;13.420;2022-09-09T19:20:25;4.28;;;1.80;;
72065;SDS011;59939;52.516;13.420;2022-09-09T19:23:30;9.02;;;2.90;;
72065;SDS011;59939;52.516;13.420;2022-09-09T19:26:37;5.22;;;2.03;;
72065;SDS011;59939;52.516;13.420;2022-09-09T19:29:43;7.40;;;2.25;;
72065;SDS011;59939;52.516;13.420;2022-09-09T19:32:48;6.35;;;1.63;;
72065;SDS011;59939;52.516;13.420;2022-09-09T19:35:56;5.07;;;2.00;;
72065;SDS011;59939;52.516;13.420;2022-09-09T19:39:01;5.40;;;1.60;;
72065;SDS011;59939;52.516;13.420;2022-09-09T19:42:13;7.97;;;2.17;;
72065;SDS011;59939;52.516;13.420;2022-09-09T19:45:17;5.32;;;2.10;;
72065;SDS011;59939;52.516;13.420;2022-09-09T19:48:36;6.70;;;2.25;;
72065;SDS011;59939;52.516;13.420;2022-09-09T19:51:43;9.23;;;2.03;;
72065;SDS011;59939;52.516;13.420;2022-09-09T19:54:48;3.22;;;1.52;;
72065;SDS011;59939;52.516;13.420;2022-09-09T19:57:55;6.18;;;2.45;;
72065;SDS011;59939;52.516;13.420;2022-09-09T20:01:10;6.88;;;1.90;;
72065;SDS011;59939;52.516;13.420;2022-09-09T20:04:31;5.55;;;2.10;;
72065;SDS011;59939;52.516;13.420;2022-09-09T20:07:37;5.65;;;1.80;;
72065;SDS011;59939;52.516;13.420;2022-09-09T20:10:49;7.45;;;2.40;;
72065;SDS011;59939;52.516;13.420;2022-09-09T20:13:57;6.18;;;1.52;;
72065;SDS011;59939;52.516;13.420;2022-09-09T20:17:01;6.70;;;2.08;;
72065;SDS011;59939;52.516;13.420;2022-09-09T20:20:05;7.35;;;2.55;;
72065;SDS011;59939;52.516;13.420;2022-09-09T20:23:12;10.65;;;3.13;;
72065;SDS011;59939;52.516;13.420;2022-09-09T20:26:17;11.95;;;3.28;;
72065;SDS011;59939;52.516;13.420;2022-09-09T20:29:44;9.38;;;2.63;;
72065;SDS011;59939;52.516;13.420;2022-09-09T20:32:51;6.47;;;2.40;;
72065;SDS011;59939;52.516;13.420;2022-09-09T20:35:55;7.65;;;2.65;;
72065;SDS011;59939;52.516;13.420;2022-09-09T20:39:00;8.13;;;2.20;;
72065;SDS011;59939;52.516;13.420;2022-09-09T20:45:46;5.07;;;2.10;;
72065;SDS011;59939;52.516;13.420;2022-09-09T20:48:53;10.35;;;2.40;;
72065;SDS011;59939;52.516;13.420;2022-09-09T20:52:03;10.88;;;2.95;;
72065;SDS011;59939;52.516;13.420;2022-09-09T20:55:07;7.57;;;2.58;;
72065;SDS011;59939;52.516;13.420;2022-09-09T20:58:11;11.82;;;2.97;;
72065;SDS011;59939;52.516;13.420;2022-09-09T21:01:16;11.70;;;3.60;;
72065;SDS011;59939;52.516;13.420;2022-09-09T21:04:21;16.42;;;4.47;;
72065;SDS011;59939;52.516;13.420;2022-09-09T21:07:25;9.32;;;3.03;;
72065;SDS011;59939;52.516;13.420;2022-09-09T21:10:29;12.93;;;3.85;;
72065;SDS011;59939;52.516;13.420;2022-09-09T21:13:35;11.48;;;3.00;;
72065;SDS011;59939;52.516;13.420;2022-09-09T21:16:40;8.35;;;2.35;;
72065;SDS011;59939;52.516;13.420;2022-09-09T21:19:44;9.35;;;2.80;;
72065;SDS011;59939;52.516;13.420;2022-09-09T21:22:48;10.35;;;2.75;;
72065;SDS011;59939;52.516;13.420;2022-09-09T21:25:52;10.13;;;2.90;;
72065;SDS011;59939;52.516;13.420;2022-09-09T21:28:57;7.22;;;2.55;;
72065;SDS011;59939;52.516;13.420;2022-09-09T21:32:01;6.20;;;2.05;;
72065;SDS011;59939;52.516;13.420;2022-09-09T21:35:06;8.00;;;2.70;;
72065;SDS011;59939;52.516;13.420;2022-09-09T21:38:14;8.98;;;1.95;;
72065;SDS011;59939;52.516;13.420;2022-09-09T21:41:22;5.80;;;2.10;;
72065;SDS011;59939;52.516;13.420;2022-09-09T21:44:26;6.38;;;2.17;;
72065;SDS011;59939;52.516;13.420;2022-09-09T21:47:30;8.52;;;2.38;;
72065;SDS011;59939;52.516;13.420;2022-09-09T21:50:37;12.10;;;3.13;;
72065;SDS011;59939;52.516;13.420;2022-09-09T21:53:43;5.43;;;2.00;;
72065;SDS011;59939;52.516;13.420;2022-09-09T21:56:48;3.83;;;1.73;;
72065;SDS011;59939;52.516;13.420;2022-09-09T21:59:54;3.08;;;1.65;;
72065;SDS011;59939;52.516;13.420;2022-09-09T22:02:58;7.80;;;2.15;;
72065;SDS011;59939;52.516;13.420;2022-09-09T22:06:03;4.57;;;1.58;;
72065;SDS011;59939;52.516;13.420;2022-09-09T22:09:08;6.68;;;2.00;;
72065;SDS011;59939;52.516;13.420;2022-09-09T22:12:12;5.90;;;2.50;;
72065;SDS011;59939;52.516;13.420;2022-09-09T22:15:16;3.53;;;1.60;;
72065;SDS011;59939;52.516;13.420;2022-09-09T22:18:21;8.23;;;2.10;;
72065;SDS011;59939;52.516;13.420;2022-09-09T22:21:25;5.30;;;1.85;;
72065;SDS011;59939;52.516;13.420;2022-09-09T22:24:30;9.50;;;2.00;;
72065;SDS011;59939;52.516;13.420;2022-09-09T22:27:34;5.20;;;1.90;;
72065;SDS011;59939;52.516;13.420;2022-09-09T22:30:38;8.52;;;2.30;;
72065;SDS011;59939;52.516;13.420;2022-09-09T22:33:42;6.97;;;2.30;;
72065;SDS011;59939;52.516;13.420;2022-09-09T22:36:46;6.53;;;1.90;;
72065;SDS011;59939;52.516;13.420;2022-09-09T22:39:52;8.13;;;2.15;;
72065;SDS011;59939;52.516;13.420;2022-09-09T22:42:57;6.93;;;2.25;;
72065;SDS011;59939;52.516;13.420;2022-09-09T22:46:02;7.88;;;2.33;;
72065;SDS011;59939;52.516;13.420;2022-09-09T22:49:06;8.40;;;2.78;;
72065;SDS011;59939;52.516;13.420;2022-09-09T22:52:09;9.77;;;3.13;;
72065;SDS011;59939;52.516;13.420;2022-09-09T22:55:13;12.52;;;2.90;;
72065;SDS011;59939;52.516;13.420;2022-09-09T22:58:17;8.68;;;2.80;;
72065;SDS011;59939;52.516;13.420;2022-09-09T23:01:22;8.25;;;2.67;;
72065;SDS011;59939;52.516;13.420;2022-09-09T23:04:27;10.00;;;3.00;;
72065;SDS011;59939;52.516;13.420;2022-09-09T23:07:31;11.82;;;3.05;;
72065;SDS011;59939;52.516;13.420;2022-09-09T23:10:38;8.45;;;2.72;;
72065;SDS011;59939;52.516;13.420;2022-09-09T23:13:50;9.13;;;2.40;;
72065;SDS011;59939;52.516;13.420;2022-09-09T23:16:56;8.55;;;2.60;;
72065;SDS011;59939;52.516;13.420;2022-09-09T23:20:00;7.70;;;2.63;;
72065;SDS011;59939;52.516;13.420;2022-09-09T23:23:05;8.70;;;3.00;;
72065;SDS011;59939;52.516;13.420;2022-09-09T23:26:10;10.05;;;2.70;;
72065;SDS011;59939;52.516;13.420;2022-09-09T23:29:16;9.38;;;2.40;;
72065;SDS011;59939;52.516;13.420;2022-09-09T23:32:21;6.88;;;1.90;;
72065;SDS011;59939;52.516;13.420;2022-09-09T23:35:27;6.47;;;2.33;;
72065;SDS011;59939;52.516;13.420;2022-09-09T23:38:30;5.05;;;1.95;;
72065;SDS011;59939;52.516;13.420;2022-09-09T23:41:34;8.35;;;2.33;;
72065;SDS011;59939;52.516;13.420;2022-09-09T23:44:39;4.85;;;2.25;;
72065;SDS011;59939;52.516;13.420;2022-09-09T23:47:43;5.60;;;2.10;;
72065;SDS011;59939;52.516;13.420;2022-09-09T23:50:47;7.30;;;2.70;;
72065;SDS011;59939;52.516;13.420;2022-09-09T23:53:53;5.13;;;2.10;;
72065;SDS011;59939;52.516;13.420;2022-09-09T23:57:00;5.70;;;2.53;;
